aviador You're here:

RKSI Decoded Metar

CHAJANG NI in KOREA
Report Time2017-06-27 05:00:00
UTC Time2017-06-27 05:21:57
Flight Rules vfr VFR
Wind280° at 11 kt
W.Decomp.*RWY 33: 8.2 kt HW 7.4 kt LCW
RWY 34: 6.8 kt HW 8.7 kt LCW
W.Rank280° ranks 16
Current wind is above 280° avg. (8.4)
Visibility9999 m
Phenomena:N/A
Clouds:Few 020 Hf
Scattered 120 Hf
Expected CloudBase > 3,600 ft AGL from Temp-Dew spread
CeilingNone
Temp27°C (ISA +12)
Dew Point18°C (58% RH)
Heat Index27.9°C
AAT25.8°C
QNH1009 hPa
Density Alt1,821 ft
Elevation23 ft
Report Wrong Elevation
Raw Report
METAR RKSI 270500Z 28011KT 240V310 9999 FEW020 SCT120 27/18 Q1009
NOSIG=

Extra information for RKSI:More info

Metar Taf Metar & Taf Last 4 Metars F.Rules Stats Wind Profile Meteogram Temp Stats Airport Information Weather charts Add Link Nearby VenuesMetar ALERT Operation Metar Decoded Social comments